Time;durP1;ratioP1;P1;durP2;ratioP2;P2;SDS_P1;SDS_P2;PMS_P1;PMS_P2;Temp;Humidity;BMP_temperature;BMP_pressure;BME280_temperature;BME280_humidity;BME280_pressure;Samples;Min_cycle;Max_cycle;Signal;HPM_P1;HPM_P2
2021/10/23 00:00:36;;;;;;;3.22;2.85;;;;;;;12.83;54.29;94326.65;1638798;86;21096;-58
2021/10/23 00:03:02;;;;;;;5.72;2.27;;;;;;;12.84;54.05;94330.94;1641496;86;21083;-58
2021/10/23 00:05:31;;;;;;;3.60;2.55;;;;;;;12.86;53.70;94331.25;1640385;86;21152;-58
2021/10/23 00:07:57;;;;;;;3.00;2.70;;;;;;;12.88;53.64;94344.71;1644906;86;20998;-59
2021/10/23 00:10:24;;;;;;;4.33;3.33;;;;;;;12.89;52.78;94335.83;1642105;86;21078;-58
2021/10/23 00:12:51;;;;;;;3.72;3.42;;;;;;;12.92;52.54;94329.36;1651152;86;20980;-59
2021/10/23 00:15:17;;;;;;;3.98;2.45;;;;;;;12.95;52.57;94325.67;1642714;85;21146;-57
2021/10/23 00:17:45;;;;;;;3.58;2.50;;;;;;;12.94;52.10;94345.61;1627699;87;23228;-59
2021/10/23 00:20:12;;;;;;;4.75;2.85;;;;;;;12.96;51.27;94329.96;1632900;87;20989;-58
2021/10/23 00:22:39;;;;;;;2.58;2.33;;;;;;;12.99;51.14;94327.63;1633055;87;21069;-59
2021/10/23 00:25:07;;;;;;;3.87;2.58;;;;;;;13.00;51.41;94309.83;1635614;87;21077;-59
2021/10/23 00:27:33;;;;;;;3.33;2.50;;;;;;;12.99;51.65;94322.11;1656515;86;21203;-59
2021/10/23 00:30:00;;;;;;;2.60;2.40;;;;;;;12.95;51.76;94311.27;1627102;87;20965;-58
2021/10/23 00:32:27;;;;;;;2.72;2.50;;;;;;;12.90;51.28;94320.78;1627333;87;21545;-57
2021/10/23 00:34:54;;;;;;;3.75;2.30;;;;;;;12.88;51.15;94302.55;1633771;87;21080;-59
2021/10/23 00:37:20;;;;;;;2.40;2.20;;;;;;;12.88;51.22;94321.24;1591610;87;21054;-59
2021/10/23 00:39:48;;;;;;;4.10;2.33;;;;;;;12.87;51.43;94314.83;1595347;87;21171;-59
2021/10/23 00:42:15;;;;;;;5.17;2.40;;;;;;;12.87;51.10;94318.97;1595525;88;21070;-58
2021/10/23 00:44:42;;;;;;;4.10;2.40;;;;;;;12.88;50.68;94323.26;1592941;88;21188;-58
2021/10/23 00:47:19;;;;;;;5.10;2.58;;;;;;;12.91;50.61;94317.53;1587992;88;21633;-58
2021/10/23 00:49:52;;;;;;;4.62;3.40;;;;;;;12.94;50.59;94327.66;1591227;87;21043;-58
2021/10/23 00:52:24;;;;;;;4.72;2.40;;;;;;;12.97;51.17;94334.25;1596385;88;21840;-59
2021/10/23 00:54:52;;;;;;;7.78;2.75;;;;;;;12.97;51.98;94332.86;1593948;87;21267;-59
2021/10/23 00:57:19;;;;;;;4.50;2.50;;;;;;;12.94;52.73;94341.47;1643431;85;21052;-61
2021/10/23 00:59:45;;;;;;;3.35;2.75;;;;;;;12.86;56.48;94331.25;1630141;87;21041;-59
2021/10/23 01:02:12;;;;;;;2.90;2.60;;;;;;;12.72;57.30;94341.62;1629017;87;21250;-58
2021/10/23 01:04:40;;;;;;;5.55;3.02;;;;;;;12.55;58.24;94327.45;1631158;87;21158;-59
2021/10/23 01:07:07;;;;;;;6.42;3.10;;;;;;;12.42;58.28;94327.54;1638784;87;21591;-58
2021/10/23 01:09:37;;;;;;;5.42;2.85;;;;;;;12.32;58.31;94331.59;1589101;89;21188;-58
2021/10/23 01:12:09;;;;;;;3.10;2.80;;;;;;;12.25;57.36;94322.90;1612246;87;21533;-58
2021/10/23 01:14:36;;;;;;;4.10;2.77;;;;;;;12.19;57.01;94328.28;1604586;87;21765;-59
2021/10/23 01:17:03;;;;;;;2.95;2.70;;;;;;;12.16;56.94;94323.70;1606785;88;21156;-58
2021/10/23 01:19:31;;;;;;;3.37;2.58;;;;;;;12.14;56.41;94320.66;1604952;87;20994;-59
2021/10/23 01:21:58;;;;;;;7.05;3.10;;;;;;;12.14;56.69;94316.52;1604699;88;21100;-58
2021/10/23 01:24:25;;;;;;;5.15;3.25;;;;;;;12.14;55.63;94313.77;1605513;88;21026;-57
2021/10/23 01:26:51;;;;;;;5.03;3.65;;;;;;;12.17;54.87;94310.06;1605101;88;20997;-58
2021/10/23 01:29:19;;;;;;;7.95;4.55;;;;;;;12.20;55.06;94317.40;1605337;89;21144;-57
2021/10/23 01:31:48;;;;;;;5.58;3.55;;;;;;;12.20;55.00;94316.63;1605195;87;21041;-58
2021/10/23 01:34:20;;;;;;;4.65;3.45;;;;;;;12.18;54.52;94311.59;1605167;89;21065;-60
2021/10/23 01:36:49;;;;;;;3.85;3.08;;;;;;;12.18;54.65;94305.30;1605157;89;21049;-58
2021/10/23 01:39:16;;;;;;;3.47;3.17;;;;;;;12.18;54.15;94322.63;1605543;89;21141;-57
2021/10/23 01:41:44;;;;;;;4.35;3.33;;;;;;;12.20;54.55;94319.38;1605278;87;21968;-58
2021/10/23 01:44:12;;;;;;;4.42;2.85;;;;;;;12.20;54.35;94323.52;1605251;88;21061;-58
2021/10/23 01:46:40;;;;;;;3.72;2.80;;;;;;;12.19;54.13;94327.51;1605070;88;21046;-59
2021/10/23 01:49:06;;;;;;;3.15;2.85;;;;;;;12.23;53.97;94330.87;1605656;88;21082;-57
2021/10/23 01:51:34;;;;;;;5.28;2.70;;;;;;;12.26;53.56;94332.70;1605293;88;21093;-58
2021/10/23 01:54:09;;;;;;;3.40;2.52;;;;;;;12.28;53.70;94344.77;1605494;88;21185;-58
2021/10/23 01:56:38;;;;;;;4.85;2.62;;;;;;;12.31;53.29;94338.95;1604811;89;21034;-59
2021/10/23 01:59:06;;;;;;;6.65;4.87;;;;;;;12.31;53.32;94347.22;1605192;88;21081;-58
2021/10/23 02:01:33;;;;;;;4.72;3.70;;;;;;;12.31;53.53;94343.86;1605204;89;21084;-59
2021/10/23 02:04:00;;;;;;;7.83;4.75;;;;;;;12.28;52.20;94353.05;1605047;89;21565;-59
2021/10/23 02:06:26;;;;;;;16.15;7.97;;;;;;;12.28;51.89;94339.89;1605285;89;21147;-58
2021/10/23 02:08:55;;;;;;;7.12;4.72;;;;;;;12.30;51.90;94353.97;1604597;89;21082;-58
2021/10/23 02:11:22;;;;;;;7.85;4.87;;;;;;;12.30;51.68;94360.23;1605219;89;20997;-57
2021/10/23 02:13:49;;;;;;;19.55;8.98;;;;;;;12.29;51.00;94350.44;1605209;89;21057;-58
2021/10/23 02:16:16;;;;;;;12.53;6.42;;;;;;;12.27;51.20;94341.87;1605242;89;21601;-59
2021/10/23 02:18:42;;;;;;;15.53;8.53;;;;;;;12.25;50.90;94348.47;1605236;89;21209;-58
2021/10/23 02:21:11;;;;;;;16.32;9.60;;;;;;;12.24;51.25;94349.70;1605199;89;21045;-58
2021/10/23 02:23:38;;;;;;;11.65;8.35;;;;;;;12.23;50.90;94359.20;1605205;89;21002;-58
2021/10/23 02:26:05;;;;;;;7.67;5.80;;;;;;;12.23;50.48;94369.48;1605237;89;21037;-58
2021/10/23 02:28:33;;;;;;;3.25;3.05;;;;;;;12.21;50.99;94363.05;1605040;89;21628;-58
2021/10/23 02:30:59;;;;;;;6.67;4.42;;;;;;;12.18;50.79;94363.20;1605315;89;21136;-58
2021/10/23 02:33:26;;;;;;;16.52;8.65;;;;;;;12.14;51.03;94384.08;1605139;88;21001;-59
2021/10/23 02:35:53;;;;;;;7.50;4.87;;;;;;;12.10;51.30;94388.97;1605195;89;20998;-58
2021/10/23 02:38:19;;;;;;;3.20;2.67;;;;;;;12.04;49.17;94384.58;1605395;87;21059;-59
2021/10/23 02:40:47;;;;;;;9.48;4.55;;;;;;;12.02;48.83;94392.52;1605112;88;21093;-59
2021/10/23 02:43:13;;;;;;;28.12;12.78;;;;;;;12.01;48.52;94389.62;1605318;89;21145;-59
2021/10/23 02:45:42;;;;;;;41.00;17.92;;;;;;;11.99;48.91;94392.86;1604792;89;20995;-58
2021/10/23 02:48:09;;;;;;;30.02;13.85;;;;;;;11.95;49.50;94395.62;1605311;89;21949;-58
2021/10/23 02:50:37;;;;;;;26.90;11.60;;;;;;;11.87;49.26;94399.31;1604901;89;21097;-60
2021/10/23 02:53:03;;;;;;;36.42;16.35;;;;;;;11.81;49.46;94402.55;1605335;88;21565;-60
2021/10/23 02:55:32;;;;;;;28.62;12.55;;;;;;;11.75;48.92;94401.63;1605123;89;21204;-59
2021/10/23 02:57:59;;;;;;;18.30;8.93;;;;;;;11.73;48.95;94407.47;1604470;88;21041;-59
2021/10/23 03:00:26;;;;;;;36.90;17.40;;;;;;;11.68;49.40;94396.45;1605258;89;21110;-59
2021/10/23 03:02:54;;;;;;;14.25;7.70;;;;;;;11.66;49.67;94409.92;1605152;88;21057;-59
2021/10/23 03:05:22;;;;;;;6.28;3.83;;;;;;;11.60;49.65;94413.16;1605290;88;21470;-59
2021/10/23 03:07:49;;;;;;;18.27;9.93;;;;;;;11.56;50.01;94407.02;1605144;89;21151;-58
2021/10/23 03:10:17;;;;;;;11.73;7.12;;;;;;;11.53;50.16;94414.80;1605071;89;21486;-58
2021/10/23 03:12:44;;;;;;;11.05;7.33;;;;;;;11.51;50.26;94418.63;1605266;89;21125;-59
2021/10/23 03:15:12;;;;;;;17.07;11.48;;;;;;;11.49;50.37;94418.33;1605283;89;21133;-59
2021/10/23 03:17:39;;;;;;;24.00;15.55;;;;;;;11.48;50.39;94418.19;1605197;89;20997;-58
2021/10/23 03:20:07;;;;;;;8.03;6.47;;;;;;;11.47;50.57;94421.38;1605637;89;21152;-57
2021/10/23 03:22:35;;;;;;;11.28;8.55;;;;;;;11.45;50.71;94417.73;1605125;89;21074;-59
2021/10/23 03:25:03;;;;;;;10.58;8.28;;;;;;;11.42;51.11;94426.14;1605459;89;21002;-58
2021/10/23 03:27:30;;;;;;;10.32;7.33;;;;;;;11.38;51.33;94422.16;1605151;89;21013;-60
2021/10/23 03:29:56;;;;;;;4.50;4.10;;;;;;;11.33;51.44;94427.53;1605237;89;21021;-59
2021/10/23 03:32:25;;;;;;;4.78;3.42;;;;;;;11.30;51.79;94420.17;1605188;89;39147;-58
2021/10/23 03:34:54;;;;;;;3.87;3.10;;;;;;;11.25;51.92;94422.94;1604769;89;21117;-58
2021/10/23 03:37:21;;;;;;;4.53;4.12;;;;;;;11.22;52.13;94425.23;1605599;89;21006;-58
2021/10/23 03:39:47;;;;;;;3.42;3.12;;;;;;;11.18;52.14;94428.73;1605184;89;21094;-58
2021/10/23 03:42:15;;;;;;;3.80;3.50;;;;;;;11.15;52.46;94431.66;1605281;89;21122;-58
2021/10/23 03:44:43;;;;;;;4.97;3.33;;;;;;;11.10;52.32;94428.89;1604989;89;21030;-58
2021/10/23 03:47:10;;;;;;;7.87;3.50;;;;;;;11.06;52.43;94435.77;1605161;89;21169;-57
2021/10/23 03:49:40;;;;;;;3.62;3.30;;;;;;;11.00;52.61;94440.35;1605233;87;21034;-59
2021/10/23 03:52:06;;;;;;;4.30;3.90;;;;;;;10.95;52.81;94448.59;1605242;88;21580;-58
2021/10/23 03:54:33;;;;;;;5.03;3.45;;;;;;;10.91;53.06;94454.87;1605001;89;21034;-59
2021/10/23 03:57:00;;;;;;;5.30;3.52;;;;;;;10.85;53.30;94467.70;1605410;89;21972;-59
2021/10/23 03:59:27;;;;;;;4.08;3.42;;;;;;;10.80;53.40;94467.53;1605141;89;21094;-58
2021/10/23 04:01:53;;;;;;;4.17;3.00;;;;;;;10.72;53.54;94467.65;1605233;89;21030;-58
2021/10/23 04:04:20;;;;;;;3.25;2.95;;;;;;;10.65;53.12;94469.31;1605249;88;21211;-58
2021/10/23 04:06:48;;;;;;;4.22;3.80;;;;;;;10.63;52.97;94475.11;1605031;89;21045;-58
2021/10/23 04:09:15;;;;;;;3.92;3.60;;;;;;;10.60;52.62;94476.80;1605237;88;21891;-58
2021/10/23 04:11:42;;;;;;;3.72;3.42;;;;;;;10.57;52.71;94476.93;1604874;89;21523;-58
2021/10/23 04:14:09;;;;;;;5.20;4.22;;;;;;;10.52;52.44;94474.78;1605195;89;21114;-58
2021/10/23 04:16:38;;;;;;;4.28;3.87;;;;;;;10.46;52.15;94478.73;1604596;89;21764;-58
2021/10/23 04:19:06;;;;;;;3.80;3.30;;;;;;;10.41;52.18;94479.92;1605229;88;22173;-58
2021/10/23 04:21:34;;;;;;;4.20;3.80;;;;;;;10.32;52.38;94489.52;1604921;89;21182;-59
2021/10/23 04:24:04;;;;;;;4.90;3.35;;;;;;;10.25;52.83;94488.39;1605212;89;21014;-59
2021/10/23 04:26:30;;;;;;;3.50;3.20;;;;;;;10.16;52.54;94485.61;1605187;89;21005;-59
2021/10/23 04:28:58;;;;;;;3.33;3.02;;;;;;;10.09;52.32;94489.98;1605204;89;21094;-58
2021/10/23 04:31:25;;;;;;;5.33;3.55;;;;;;;10.02;52.61;94490.27;1605123;89;21207;-58
2021/10/23 04:33:51;;;;;;;11.08;6.28;;;;;;;9.95;52.55;94489.13;1605163;88;21171;-57
2021/10/23 04:36:17;;;;;;;14.78;8.88;;;;;;;9.86;52.56;94491.81;1605235;88;21038;-58
2021/10/23 04:38:44;;;;;;;23.38;11.28;;;;;;;9.73;50.88;94496.59;1605020;88;21100;-58
2021/10/23 04:41:10;;;;;;;27.70;12.60;;;;;;;9.67;50.60;94501.14;1605576;89;20982;-58
2021/10/23 04:43:37;;;;;;;10.15;6.37;;;;;;;9.60;50.56;94511.77;1604937;87;21098;-60
2021/10/23 04:46:05;;;;;;;6.08;5.30;;;;;;;9.54;49.98;94514.16;1605229;88;21064;-58
2021/10/23 04:48:32;;;;;;;8.83;5.22;;;;;;;9.46;49.86;94522.48;1605211;89;21465;-58
2021/10/23 04:51:01;;;;;;;8.15;5.17;;;;;;;9.40;49.96;94527.77;1605412;89;20926;-57
2021/10/23 04:53:28;;;;;;;7.40;4.60;;;;;;;9.33;49.96;94527.25;1604911;89;21129;-57
2021/10/23 04:55:55;;;;;;;6.00;3.85;;;;;;;9.27;49.73;94537.27;1605069;87;21020;-58
2021/10/23 04:58:22;;;;;;;4.75;3.33;;;;;;;9.22;49.37;94543.33;1605198;89;21651;-57
2021/10/23 05:00:48;;;;;;;3.37;3.08;;;;;;;9.19;48.95;94559.28;1605268;88;21043;-59
2021/10/23 05:03:15;;;;;;;5.72;3.42;;;;;;;9.14;48.67;94557.88;1605219;88;21148;-58
2021/10/23 05:05:43;;;;;;;3.72;3.42;;;;;;;9.12;48.65;94565.02;1605038;89;21082;-58
2021/10/23 05:08:10;;;;;;;3.00;2.80;;;;;;;9.07;48.55;94575.18;1605130;89;21034;-58
2021/10/23 05:10:39;;;;;;;3.27;2.98;;;;;;;9.02;48.41;94580.61;1605259;88;21082;-58
2021/10/23 05:13:06;;;;;;;4.58;3.77;;;;;;;9.01;48.22;94585.16;1605180;88;21085;-57
2021/10/23 05:15:34;;;;;;;4.17;3.87;;;;;;;9.02;48.32;94585.32;1605361;88;21081;-58
2021/10/23 05:18:00;;;;;;;4.90;4.03;;;;;;;9.03;48.87;94588.25;1605278;89;21042;-58
2021/10/23 05:20:28;;;;;;;5.62;4.20;;;;;;;9.05;49.26;94594.06;1605375;89;20991;-58
2021/10/23 05:22:56;;;;;;;9.95;6.10;;;;;;;9.06;49.55;94601.09;1605175;89;21214;-58
2021/10/23 05:25:23;;;;;;;12.25;6.50;;;;;;;9.08;49.95;94604.91;1605274;89;21900;-58
2021/10/23 05:27:49;;;;;;;14.35;7.75;;;;;;;9.05;50.38;94598.18;1605168;89;21470;-57
2021/10/23 05:30:16;;;;;;;12.40;6.83;;;;;;;8.98;49.83;94598.39;1610698;88;21048;-57
2021/10/23 05:32:42;;;;;;;14.50;9.03;;;;;;;8.88;50.02;94606.36;1616019;87;20985;-58
2021/10/23 05:35:09;;;;;;;16.07;9.15;;;;;;;8.78;50.43;94612.94;1616152;88;21174;-58
2021/10/23 05:37:37;;;;;;;20.68;10.20;;;;;;;8.72;50.64;94620.18;1615771;88;21576;-58
2021/10/23 05:40:06;;;;;;;32.60;13.05;;;;;;;8.66;50.90;94621.91;1615951;88;21661;-59
2021/10/23 05:42:33;;;;;;;26.48;14.28;;;;;;;8.65;51.14;94626.48;1615886;87;21049;-59
2021/10/23 05:45:00;;;;;;;37.38;18.12;;;;;;;8.63;51.51;94639.24;1615945;88;20965;-58
2021/10/23 05:47:26;;;;;;;34.53;22.15;;;;;;;8.66;51.64;94648.58;1616002;88;21140;-58
2021/10/23 05:49:53;;;;;;;36.10;16.00;;;;;;;8.67;51.53;94645.41;1583705;88;21002;-59
2021/10/23 05:52:20;;;;;;;22.58;12.60;;;;;;;8.70;51.52;94646.49;1594377;88;21040;-61
2021/10/23 05:54:48;;;;;;;22.07;12.68;;;;;;;8.73;51.58;94649.14;1587606;88;21134;-61
2021/10/23 05:57:17;;;;;;;23.02;13.28;;;;;;;8.77;51.67;94649.05;1596177;88;21185;-60
2021/10/23 05:59:46;;;;;;;23.65;11.60;;;;;;;8.86;51.77;94648.55;1608170;88;21101;-55
2021/10/23 06:02:25;;;;;;;35.23;12.65;;;;;;;8.92;51.66;94646.80;1601088;88;21100;-57
2021/10/23 06:04:53;;;;;;;19.37;9.23;;;;;;;9.01;51.57;94651.01;1585321;88;21049;-60
2021/10/23 06:07:22;;;;;;;21.97;8.88;;;;;;;9.10;51.20;94654.62;1585317;88;21057;-59
2021/10/23 06:09:50;;;;;;;11.65;7.22;;;;;;;9.16;51.05;94655.63;1587554;88;21121;-61
2021/10/23 06:12:17;;;;;;;16.70;8.53;;;;;;;9.20;50.67;94656.28;1585775;88;21126;-59
2021/10/23 06:14:45;;;;;;;14.58;9.25;;;;;;;9.24;51.07;94661.67;1591195;88;21049;-60
2021/10/23 06:17:13;;;;;;;18.37;11.05;;;;;;;9.31;51.18;94665.55;1594781;88;21050;-57
2021/10/23 06:19:41;;;;;;;41.70;17.75;;;;;;;9.38;51.55;94666.69;1592456;88;21641;-59
2021/10/23 06:22:10;;;;;;;48.85;17.20;;;;;;;9.43;51.83;94666.91;1590539;88;21570;-60
2021/10/23 06:24:39;;;;;;;32.63;14.98;;;;;;;9.51;51.86;94679.21;1588484;88;21054;-58
2021/10/23 06:27:06;;;;;;;28.47;11.00;;;;;;;9.59;51.62;94672.89;1587907;88;21110;-60
2021/10/23 06:29:39;;;;;;;36.98;19.50;;;;;;;9.68;51.33;94677.09;1584055;87;21029;-62
2021/10/23 06:32:09;;;;;;;36.08;13.62;;;;;;;9.77;51.19;94679.94;1570644;88;21798;-62
2021/10/23 06:34:40;;;;;;;34.18;12.78;;;;;;;9.88;50.88;94680.33;1592668;88;21151;-60
2021/10/23 06:37:05;;;;;;;17.82;8.60;;;;;;;10.01;50.61;94681.08;1589841;87;21159;-59
2021/10/23 06:39:34;;;;;;;14.28;8.03;;;;;;;10.13;50.06;94686.55;1588281;87;21116;-58
2021/10/23 06:42:01;;;;;;;9.50;6.15;;;;;;;10.25;49.48;94680.84;1590569;88;21083;-59
2021/10/23 06:44:28;;;;;;;6.47;5.08;;;;;;;10.33;49.18;94687.02;1601243;88;21098;-60
2021/10/23 06:46:58;;;;;;;7.08;4.92;;;;;;;10.39;48.98;94680.34;1588477;88;21133;-60
2021/10/23 06:49:24;;;;;;;9.15;5.10;;;;;;;10.47;48.80;94681.02;1578938;88;21131;-59
2021/10/23 06:51:53;;;;;;;6.58;4.87;;;;;;;10.58;48.45;94688.30;1598096;88;21264;-63
2021/10/23 06:54:19;;;;;;;4.92;3.90;;;;;;;10.68;48.18;94687.75;1589948;87;21089;-61
2021/10/23 06:56:48;;;;;;;5.08;4.12;;;;;;;10.80;47.78;94697.30;1603391;87;21113;-58
2021/10/23 06:59:15;;;;;;;5.35;4.62;;;;;;;10.88;47.47;94694.44;1627413;85;21650;-58
2021/10/23 07:01:43;;;;;;;8.78;4.50;;;;;;;10.98;47.49;94695.41;1628857;86;22118;-61
2021/10/23 07:04:10;;;;;;;8.05;4.50;;;;;;;11.12;47.27;94701.76;1609510;86;21122;-60
2021/10/23 07:06:37;;;;;;;4.55;3.80;;;;;;;11.25;47.07;94704.41;1599697;88;22295;-58
2021/10/23 07:09:04;;;;;;;7.30;3.95;;;;;;;11.41;46.39;94704.97;1616083;87;21091;-60
2021/10/23 07:11:30;;;;;;;8.95;4.92;;;;;;;11.52;46.13;94704.55;1587787;87;21134;-58
2021/10/23 07:13:57;;;;;;;5.67;4.60;;;;;;;11.60;46.31;94702.46;1598492;87;21103;-59
2021/10/23 07:16:26;;;;;;;12.40;8.68;;;;;;;11.69;45.98;94701.10;1598818;87;21549;-59
2021/10/23 07:18:53;;;;;;;6.70;3.85;;;;;;;11.79;45.76;94700.52;1640568;85;21073;-63
2021/10/23 07:21:21;;;;;;;5.92;4.00;;;;;;;11.87;45.43;94701.14;1604466;86;21585;-61
2021/10/23 07:23:49;;;;;;;3.33;3.12;;;;;;;11.93;45.44;94699.31;1614848;87;21525;-59
2021/10/23 07:26:20;;;;;;;3.87;3.12;;;;;;;12.02;45.10;94701.32;1620993;87;21401;-62
2021/10/23 07:28:49;;;;;;;4.95;3.08;;;;;;;12.09;44.77;94708.69;1616763;86;26584;-60
2021/10/23 07:31:17;;;;;;;3.58;2.60;;;;;;;12.16;44.57;94711.77;1595045;87;21133;-59
2021/10/23 07:33:43;;;;;;;3.83;3.17;;;;;;;12.20;44.61;94709.02;1635910;85;21132;-59
2021/10/23 07:36:17;;;;;;;3.05;2.62;;;;;;;12.25;44.84;94705.65;1635571;85;21075;-59
2021/10/23 07:38:44;;;;;;;3.72;3.33;;;;;;;12.35;43.97;94711.34;1641583;85;21353;-59
2021/10/23 07:41:10;;;;;;;6.08;4.15;;;;;;;12.45;44.07;94712.86;1619950;86;21040;-62
2021/10/23 07:43:39;;;;;;;4.28;2.98;;;;;;;12.60;43.88;94715.95;1616305;86;21183;-59
2021/10/23 07:46:05;;;;;;;8.55;3.10;;;;;;;12.80;43.49;94723.73;1611019;86;21145;-58
2021/10/23 07:48:34;;;;;;;3.62;2.58;;;;;;;12.92;43.06;94714.53;1626978;85;21056;-59
2021/10/23 07:51:03;;;;;;;3.58;2.58;;;;;;;13.00;41.38;94715.77;1636005;85;21303;-60
2021/10/23 07:53:30;;;;;;;3.27;2.77;;;;;;;13.10;41.33;94726.96;1612142;87;21192;-60
2021/10/23 07:55:57;;;;;;;4.20;2.83;;;;;;;13.16;40.77;94720.95;1585958;88;21195;-60
2021/10/23 07:58:25;;;;;;;29.67;5.53;;;;;;;13.16;40.35;94720.95;1610600;86;21067;-61
2021/10/23 08:00:52;;;;;;;6.87;4.62;;;;;;;13.10;40.50;94719.42;1590001;87;21077;-60
2021/10/23 08:03:19;;;;;;;5.15;3.87;;;;;;;13.13;40.78;94718.52;1632819;84;21679;-61
2021/10/23 08:05:46;;;;;;;7.05;3.95;;;;;;;13.14;40.53;94717.30;1614245;86;21437;-62
2021/10/23 08:08:12;;;;;;;3.92;3.40;;;;;;;13.12;40.16;94716.21;1585003;86;21123;-60
2021/10/23 08:10:40;;;;;;;2.83;2.60;;;;;;;13.12;40.15;94718.34;1572010;88;21123;-61
2021/10/23 08:13:07;;;;;;;2.92;2.65;;;;;;;13.15;40.47;94715.28;1581304;88;21068;-64
2021/10/23 08:15:37;;;;;;;4.85;2.72;;;;;;;13.22;40.67;94724.61;1635823;85;21029;-62
2021/10/23 08:18:05;;;;;;;2.83;2.60;;;;;;;13.38;39.99;94727.03;1626170;85;21101;-61
2021/10/23 08:20:35;;;;;;;3.75;3.12;;;;;;;13.43;39.21;94723.02;1613444;86;21062;-60
2021/10/23 08:23:03;;;;;;;2.87;2.42;;;;;;;13.44;39.56;94728.70;1608714;86;22423;-62
2021/10/23 08:25:34;;;;;;;3.02;2.50;;;;;;;13.44;39.86;94734.86;1619315;86;21616;-63
2021/10/23 08:28:06;;;;;;;12.05;2.62;;;;;;;13.43;39.70;94724.41;1616497;86;21092;-64
2021/10/23 08:30:34;;;;;;;3.47;3.05;;;;;;;13.38;38.91;94724.27;1610766;85;21091;-60
2021/10/23 08:33:05;;;;;;;2.72;2.27;;;;;;;13.23;39.04;94728.94;1611266;85;22382;-62
2021/10/23 08:35:34;;;;;;;3.00;2.70;;;;;;;13.23;39.14;94731.06;1607892;86;21612;-61
2021/10/23 08:38:04;;;;;;;5.35;3.80;;;;;;;13.31;39.49;94727.37;1603511;87;21137;-62
2021/10/23 08:40:32;;;;;;;5.83;4.97;;;;;;;13.38;39.62;94725.64;1610851;87;21929;-63
2021/10/23 08:43:07;;;;;;;8.68;6.90;;;;;;;13.37;39.27;94733.79;1619919;87;21190;-63
2021/10/23 08:45:38;;;;;;;3.25;2.50;;;;;;;13.32;38.75;94732.44;1601908;86;22239;-61
2021/10/23 08:48:07;;;;;;;3.35;2.83;;;;;;;13.26;39.31;94733.53;1597529;87;21432;-60
2021/10/23 08:50:35;;;;;;;2.30;2.10;;;;;;;13.22;38.71;94735.06;1622496;86;21019;-60
2021/10/23 08:53:05;;;;;;;2.35;2.12;;;;;;;13.26;39.23;94741.19;1620991;86;21115;-61
2021/10/23 08:55:31;;;;;;;3.77;2.30;;;;;;;13.34;38.51;94743.80;1621916;85;21079;-60
2021/10/23 08:58:00;;;;;;;8.28;2.67;;;;;;;13.36;38.74;94741.33;1635942;84;21595;-59
2021/10/23 09:00:27;;;;;;;4.33;2.65;;;;;;;13.43;38.33;94736.09;1636414;85;21069;-58
2021/10/23 09:02:56;;;;;;;3.12;2.17;;;;;;;13.61;38.00;94734.65;1643855;85;21367;-58
2021/10/23 09:05:27;;;;;;;9.88;4.10;;;;;;;13.68;37.78;94738.45;1637687;85;21100;-61
2021/10/23 09:07:58;;;;;;;9.83;4.75;;;;;;;13.73;38.14;94739.19;1659942;85;21096;-62
2021/10/23 09:10:31;;;;;;;6.87;2.17;;;;;;;13.96;38.31;94748.92;1667495;84;21011;-64
2021/10/23 09:13:07;;;;;;;6.80;2.40;;;;;;;14.27;37.11;94735.57;1629167;84;21046;-64
2021/10/23 09:15:40;;;;;;;4.35;1.70;;;;;;;14.63;36.79;94746.39;1650687;85;21533;-66
2021/10/23 09:18:09;;;;;;;4.35;2.58;;;;;;;14.91;36.48;94747.70;1616902;85;21667;-64
2021/10/23 09:20:41;;;;;;;1.72;1.62;;;;;;;15.03;36.57;94749.45;1645541;85;21062;-62
2021/10/23 09:23:17;;;;;;;5.75;2.02;;;;;;;15.16;36.18;94752.72;1611879;87;21057;-65
2021/10/23 09:25:48;;;;;;;3.70;2.12;;;;;;;15.42;35.63;94743.41;1624227;86;21212;-64
2021/10/23 09:28:19;;;;;;;6.25;2.15;;;;;;;15.69;35.13;94745.86;1651752;86;21071;-65
2021/10/23 09:30:51;;;;;;;6.28;2.22;;;;;;;15.83;35.07;94743.70;1658882;85;21020;-64
2021/10/23 09:33:26;;;;;;;6.67;3.02;;;;;;;15.76;34.80;94739.16;1630862;86;21044;-65
2021/10/23 09:35:55;;;;;;;8.53;2.60;;;;;;;15.71;34.81;94740.59;1634895;87;20947;-64
2021/10/23 09:38:29;;;;;;;3.17;1.90;;;;;;;15.67;34.59;94746.19;1645756;86;21690;-64
2021/10/23 09:40:58;;;;;;;6.05;2.70;;;;;;;15.63;34.66;94756.11;1638294;87;21157;-66
2021/10/23 09:43:30;;;;;;;7.50;2.27;;;;;;;15.51;34.84;94744.68;1627259;87;21181;-65
2021/10/23 09:46:03;;;;;;;7.35;2.08;;;;;;;15.28;35.79;94744.13;1627268;86;21124;-65
2021/10/23 09:48:38;;;;;;;3.55;2.27;;;;;;;15.16;35.63;94743.02;1631946;87;21100;-64
2021/10/23 09:51:24;;;;;;;5.87;1.75;;;;;;;14.97;35.21;94742.41;1643461;87;21092;-64
2021/10/23 09:53:58;;;;;;;4.47;2.72;;;;;;;15.23;35.55;94739.86;1641416;87;21033;-65
2021/10/23 09:56:33;;;;;;;4.95;4.45;;;;;;;15.59;34.82;94729.20;1633430;87;21147;-63
2021/10/23 09:59:09;;;;;;;4.37;3.85;;;;;;;15.68;34.12;94734.63;1624721;87;21089;-64
2021/10/23 10:01:44;;;;;;;2.50;1.92;;;;;;;15.53;34.62;94729.70;1614925;85;21064;-64
2021/10/23 10:04:12;;;;;;;8.38;7.47;;;;;;;15.34;35.25;94728.38;1622063;87;21091;-63
2021/10/23 10:06:45;;;;;;;18.20;16.37;;;;;;;15.19;34.99;94733.12;1623456;87;21068;-64
2021/10/23 10:09:22;;;;;;;9.35;4.40;;;;;;;15.24;35.19;94729.70;1625591;87;21050;-64
2021/10/23 10:11:53;;;;;;;16.70;4.25;;;;;;;15.41;34.81;94734.95;1626044;86;21231;-65
2021/10/23 10:14:28;;;;;;;13.50;7.10;;;;;;;15.41;35.00;94736.33;1626691;87;21081;-64
2021/10/23 10:16:59;;;;;;;2.60;2.12;;;;;;;15.68;34.76;94733.84;1623395;87;21032;-64
2021/10/23 10:19:29;;;;;;;4.00;1.70;;;;;;;16.48;33.44;94732.05;1634602;85;21119;-64
2021/10/23 10:21:55;;;;;;;3.70;3.25;;;;;;;17.43;32.70;94728.50;1646771;85;21932;-63
2021/10/23 10:24:28;;;;;;;10.55;6.03;;;;;;;17.93;31.24;94722.72;1659521;85;21083;-64
2021/10/23 10:27:11;;;;;;;5.87;4.92;;;;;;;17.79;31.48;94728.56;1599087;86;21093;-65
2021/10/23 10:29:53;;;;;;;2.52;2.05;;;;;;;17.47;31.42;94734.61;1600330;87;21632;-64
2021/10/23 10:32:40;;;;;;;4.53;3.25;;;;;;;17.02;32.21;94729.80;1632544;86;21089;-64
2021/10/23 10:35:28;;;;;;;4.05;2.40;;;;;;;16.60;32.50;94742.84;1661944;85;22352;-64
2021/10/23 10:43:25;;;;;;;3.20;2.90;;;;;;;16.30;33.88;94743.38;1654551;86;21025;-63
2021/10/23 10:45:55;;;;;;;3.90;2.10;;;;;;;15.84;33.86;94749.39;1656435;85;21076;-63
2021/10/23 10:48:36;;;;;;;3.15;1.95;;;;;;;15.96;34.38;94753.09;1657251;86;21215;-66
2021/10/23 10:51:14;;;;;;;3.30;2.17;;;;;;;16.00;33.46;94743.34;1659092;85;21092;-63
2021/10/23 10:53:54;;;;;;;4.37;2.33;;;;;;;15.79;34.23;94748.69;1657724;85;21104;-63
2021/10/23 10:56:22;;;;;;;8.13;7.28;;;;;;;15.57;34.25;94751.08;1655354;85;21085;-63
2021/10/23 10:58:56;;;;;;;5.62;5.12;;;;;;;15.23;34.29;94748.95;1640739;84;21098;-64
2021/10/23 11:01:34;;;;;;;7.85;6.10;;;;;;;14.91;34.68;94754.02;1660930;85;21716;-65
2021/10/23 11:04:10;;;;;;;15.00;9.20;;;;;;;14.63;34.89;94760.99;1631443;85;21977;-64
2021/10/23 11:06:49;;;;;;;9.58;7.10;;;;;;;14.40;35.23;94758.86;1629037;87;21061;-64
2021/10/23 11:09:25;;;;;;;8.60;6.03;;;;;;;14.17;35.46;94763.77;1609263;87;21081;-63
2021/10/23 11:11:59;;;;;;;3.98;3.20;;;;;;;14.07;35.68;94762.23;1633224;85;21083;-63
2021/10/23 11:14:37;;;;;;;7.28;5.28;;;;;;;14.03;36.20;94775.48;1658249;85;21150;-66
2021/10/23 11:17:12;;;;;;;6.45;3.17;;;;;;;13.99;36.20;94772.13;1658879;85;21102;-65
2021/10/23 11:19:49;;;;;;;5.58;3.00;;;;;;;13.92;35.74;94770.46;1633583;87;21091;-64
2021/10/23 11:22:32;;;;;;;5.62;3.30;;;;;;;13.75;35.94;94777.59;1648410;85;21132;-66
2021/10/23 11:25:10;;;;;;;10.98;3.10;;;;;;;13.58;36.32;94775.64;1634896;85;21525;-63
2021/10/23 11:27:49;;;;;;;12.10;3.77;;;;;;;13.51;36.44;94784.27;1631051;86;21099;-64
2021/10/23 11:30:28;;;;;;;7.97;3.40;;;;;;;13.45;36.87;94777.84;1661080;84;21070;-65
2021/10/23 11:33:02;;;;;;;5.75;2.83;;;;;;;13.36;36.73;94789.69;1669578;84;21065;-64
2021/10/23 11:35:38;;;;;;;113.17;70.97;;;;;;;13.28;36.59;94796.74;1636034;85;21498;-62
2021/10/23 11:38:10;;;;;;;26.65;19.67;;;;;;;13.25;36.09;94784.49;1629424;86;21452;-64
2021/10/23 11:40:37;;;;;;;10.18;9.10;;;;;;;13.30;36.09;94789.39;1621994;86;22372;-63
2021/10/23 11:43:04;;;;;;;3.27;2.98;;;;;;;13.89;35.56;94782.46;1642497;85;21163;-63
2021/10/23 11:45:32;;;;;;;5.87;5.28;;;;;;;14.92;34.25;94774.16;1660037;85;21657;-66